This is the latest recevied weather packets stored in our database for station/object EA1IXY-2. If no packets are shown the sender has not sent any weather packets the latest 10 day(s).
| Time | Temp. | Humidity | Pressure | Rain* | Wind** | Luminosity | Snow |
|---|---|---|---|---|---|---|---|
| 1778155475 | 38.33° C | 15% | 923.3 hPa | - | - | - | - |
| 1778154575 | 37.78° C | 15% | 923.4 hPa | - | - | - | - |
| 1778153675 | 38.33° C | 15% | 923.5 hPa | - | - | - | - |
| 1778152775 | 38.33° C | 15% | 923.6 hPa | - | - | - | - |
| 1778151875 | 38.33° C | 15% | 923.7 hPa | - | - | - | - |
| 1778150975 | 38.33° C | 16% | 923.8 hPa | - | - | - | - |
| 1778150074 | 37.22° C | 16% | 922.6 hPa | - | - | - | - |
| 1778149163 | 38.33° C | 15% | 923.9 hPa | - | - | - | - |
| 1778148263 | 38.33° C | 15% | 924 hPa | - | - | - | - |
| 1778147362 | 38.33° C | 15% | 924.1 hPa | - | - | - | - |
| 1778146462 | 38.33° C | 16% | 924.2 hPa | - | - | - | - |
| 1778145562 | 38.33° C | 16% | 924.3 hPa | - | - | - | - |
| 1778144662 | 38.33° C | 16% | 924.3 hPa | - | - | - | - |
| 1778143762 | 37.78° C | 16% | 924.4 hPa | - | - | - | - |
| 1778142862 | 38.33° C | 16% | 924.4 hPa | - | - | - | - |
| 1778141962 | 37.78° C | 16% | 924.5 hPa | - | - | - | - |
| 1778141062 | 38.33° C | 16% | 924.6 hPa | - | - | - | - |
| 1778140161 | 38.33° C | 16% | 924.6 hPa | - | - | - | - |
| 1778139261 | 36.11° C | 15% | 923.3 hPa | - | - | - | - |
| 1778138350 | 38.33° C | 16% | 924.6 hPa | - | - | - | - |
| 1778137449 | 38.33° C | 17% | 924.7 hPa | - | - | - | - |
| 1778136549 | 38.33° C | 16% | 924.7 hPa | - | - | - | - |
| 1778134749 | 38.89° C | 16% | 924.7 hPa | - | - | - | - |
| 1778133849 | 38.33° C | 16% | 924.6 hPa | - | - | - | - |
| 1778132949 | 38.33° C | 17% | 924.6 hPa | - | - | - | - |
* Rain since midnight (hover to see other rain measurements)
** Current wind speed in m/s (hover to see current wind gust speed)